Time;durP1;ratioP1;P1;durP2;ratioP2;P2;SDS_P1;SDS_P2;PMS_P1;PMS_P2;Temp;Humidity;BMP_temperature;BMP_pressure;BME280_temperature;BME280_humidity;BME280_pressure;Samples;Min_cycle;Max_cycle;Signal;HPM_P1;HPM_P2
2023/12/05 00:00:33;;;;;;;0.87;0.87;;;0.40;99.90;;;;;;5018345;28;20177;-83
2023/12/05 00:02:59;;;;;;;0.90;0.90;;;0.40;99.90;;;;;;5037818;28;20255;-84
2023/12/05 00:05:24;;;;;;;0.80;0.80;;;0.40;99.90;;;;;;5035927;28;20215;-85
2023/12/05 00:07:50;;;;;;;0.90;0.90;;;0.40;99.90;;;;;;5018463;28;20176;-83
2023/12/05 00:10:16;;;;;;;0.90;0.90;;;0.50;99.90;;;;;;5024211;28;20203;-83
2023/12/05 00:12:41;;;;;;;0.90;0.90;;;0.50;99.90;;;;;;5028466;28;20183;-83
2023/12/05 00:15:08;;;;;;;0.90;0.90;;;0.50;99.90;;;;;;5050175;28;20199;-83
2023/12/05 00:17:34;;;;;;;0.80;0.80;;;0.50;99.90;;;;;;5045499;28;20175;-83
2023/12/05 00:19:59;;;;;;;0.80;0.80;;;0.50;99.90;;;;;;5036066;28;20168;-83
2023/12/05 00:22:28;;;;;;;0.90;0.90;;;0.30;99.90;;;;;;5036005;28;20275;-84
2023/12/05 00:24:53;;;;;;;0.80;0.80;;;0.30;99.90;;;;;;5019039;28;20173;-84
2023/12/05 00:27:19;;;;;;;0.90;0.90;;;0.20;99.90;;;;;;5015453;28;20564;-83
2023/12/05 00:29:47;;;;;;;0.93;0.93;;;0.30;99.90;;;;;;5014940;28;20578;-84
2023/12/05 00:32:12;;;;;;;0.93;0.93;;;0.30;99.90;;;;;;5028797;28;20263;-81
2023/12/05 00:34:38;;;;;;;0.90;0.90;;;0.10;99.90;;;;;;5038030;28;20177;-81
2023/12/05 00:37:04;;;;;;;1.00;1.00;;;0.10;99.90;;;;;;5037507;28;20199;-81
2023/12/05 00:39:29;;;;;;;0.90;0.90;;;0.10;99.90;;;;;;5037956;28;20169;-81
2023/12/05 00:41:55;;;;;;;0.80;0.80;;;0.10;99.90;;;;;;5003322;28;20191;-84
2023/12/05 00:44:20;;;;;;;0.97;0.97;;;0.20;99.90;;;;;;5019766;28;20175;-84
2023/12/05 00:46:46;;;;;;;0.83;0.83;;;0.20;99.90;;;;;;5018911;28;20303;-83
2023/12/05 00:49:11;;;;;;;0.90;0.90;;;0.20;99.90;;;;;;5017425;28;20259;-82
2023/12/05 00:51:37;;;;;;;0.90;0.90;;;0.20;99.90;;;;;;5002256;28;20208;-82
2023/12/05 00:54:04;;;;;;;0.83;0.83;;;0.20;99.90;;;;;;5025591;28;20270;-83
2023/12/05 00:56:29;;;;;;;0.90;0.90;;;0.30;99.90;;;;;;5025514;28;20203;-83
2023/12/05 00:58:55;;;;;;;0.80;0.80;;;0.40;99.90;;;;;;5024929;28;20176;-85
2023/12/05 01:01:21;;;;;;;1.00;1.00;;;0.40;99.90;;;;;;5020032;28;20181;-83
2023/12/05 01:03:46;;;;;;;0.90;0.90;;;0.20;99.90;;;;;;5019650;28;20184;-84
2023/12/05 01:06:12;;;;;;;0.90;0.90;;;0.10;99.90;;;;;;5017172;28;20239;-83
2023/12/05 01:08:37;;;;;;;0.90;0.90;;;0.10;99.90;;;;;;5001334;28;20172;-84
2023/12/05 01:11:03;;;;;;;0.80;0.80;;;0.40;99.90;;;;;;5000856;28;20223;-84
2023/12/05 01:13:29;;;;;;;0.90;0.90;;;0.40;99.90;;;;;;5017273;28;20249;-83
2023/12/05 01:15:54;;;;;;;0.90;0.90;;;0.50;99.90;;;;;;5017823;28;20203;-83
2023/12/05 01:18:20;;;;;;;0.80;0.80;;;0.70;99.90;;;;;;5017866;28;20173;-86
2023/12/05 01:20:45;;;;;;;0.90;0.90;;;0.90;99.90;;;;;;5017530;28;20173;-85
2023/12/05 01:23:11;;;;;;;0.90;0.90;;;0.90;99.90;;;;;;5018127;28;20805;-84
2023/12/05 01:25:37;;;;;;;1.00;1.00;;;0.90;99.90;;;;;;5016426;28;20203;-87
2023/12/05 01:28:02;;;;;;;0.90;0.90;;;1.00;99.90;;;;;;5017518;28;20175;-84
2023/12/05 01:30:28;;;;;;;0.90;0.90;;;1.00;99.90;;;;;;5017824;28;20177;-82
2023/12/05 01:32:54;;;;;;;0.80;0.80;;;1.10;99.90;;;;;;5018172;28;20195;-82
2023/12/05 01:35:19;;;;;;;0.90;0.90;;;1.20;99.90;;;;;;5017017;28;20176;-83
2023/12/05 01:37:45;;;;;;;0.97;0.97;;;1.30;99.90;;;;;;4999653;28;20182;-83
2023/12/05 01:40:11;;;;;;;0.80;0.80;;;1.30;99.90;;;;;;5017252;28;20180;-84
2023/12/05 01:42:37;;;;;;;0.83;0.83;;;1.30;99.90;;;;;;5016945;28;20177;-84
2023/12/05 01:45:04;;;;;;;0.90;0.90;;;1.30;99.90;;;;;;5015178;28;20188;-83
2023/12/05 01:47:30;;;;;;;0.90;0.90;;;1.20;99.90;;;;;;5015340;28;20243;-82
2023/12/05 01:49:56;;;;;;;0.87;0.87;;;1.20;99.90;;;;;;4998640;28;20655;-82
2023/12/05 01:52:22;;;;;;;1.00;1.00;;;1.30;99.90;;;;;;5016737;28;20215;-82
2023/12/05 01:54:48;;;;;;;0.80;0.80;;;1.30;99.90;;;;;;5015762;28;20195;-82
2023/12/05 01:57:15;;;;;;;1.00;1.00;;;1.20;99.90;;;;;;4998007;28;20192;-83
2023/12/05 01:59:41;;;;;;;0.80;0.80;;;1.20;99.90;;;;;;5015979;28;20200;-83
2023/12/05 02:02:07;;;;;;;0.90;0.90;;;1.40;99.90;;;;;;5015968;28;20180;-83
2023/12/05 02:04:33;;;;;;;0.80;0.80;;;1.10;99.90;;;;;;5015599;28;20185;-84
2023/12/05 02:07:00;;;;;;;0.80;0.80;;;1.10;99.90;;;;;;5015712;28;20645;-84
2023/12/05 02:09:25;;;;;;;0.83;0.83;;;0.90;99.90;;;;;;5016120;28;20179;-84
2023/12/05 02:11:51;;;;;;;0.80;0.80;;;0.70;99.90;;;;;;5018143;28;20284;-82
2023/12/05 02:14:16;;;;;;;0.80;0.80;;;0.70;99.90;;;;;;5020715;28;20192;-83
2023/12/05 02:17:14;;;;;;;0.90;0.90;;;0.40;99.90;;;;;;5019681;28;20275;-84
2023/12/05 02:19:52;;;;;;;0.90;0.90;;;0.20;99.90;;;;;;5021567;28;20242;-83
2023/12/05 02:22:52;;;;;;;1.00;1.00;;;0.10;99.90;;;;;;5020853;28;20172;-83
2023/12/05 02:25:32;;;;;;;0.80;0.80;;;0.30;99.90;;;;;;5020785;28;20177;-84
2023/12/05 02:28:00;;;;;;;0.83;0.83;;;0.50;99.90;;;;;;5022008;28;20163;-83
2023/12/05 02:30:25;;;;;;;0.90;0.90;;;0.40;99.90;;;;;;5021129;28;20307;-84
2023/12/05 02:32:51;;;;;;;0.90;0.90;;;0.20;99.90;;;;;;5021553;28;20173;-83
2023/12/05 02:35:17;;;;;;;0.90;0.90;;;0.70;99.90;;;;;;5029561;28;20264;-81
2023/12/05 02:38:15;;;;;;;1.00;1.00;;;0.60;99.90;;;;;;5039768;28;20161;-81
2023/12/05 02:40:50;;;;;;;0.90;0.90;;;0.50;99.90;;;;;;5038645;28;20183;-83
2023/12/05 02:43:24;;;;;;;0.90;0.90;;;0.40;99.90;;;;;;5021464;28;20167;-81
2023/12/05 02:45:52;;;;;;;0.90;0.90;;;0.50;99.90;;;;;;5038373;28;20254;-81
2023/12/05 02:48:18;;;;;;;0.90;0.90;;;0.90;99.90;;;;;;5038378;28;20181;-81
2023/12/05 02:50:45;;;;;;;0.90;0.90;;;0.60;99.90;;;;;;5024969;28;20223;-83
2023/12/05 02:53:11;;;;;;;0.90;0.90;;;0.60;99.90;;;;;;5021746;28;20187;-84
2023/12/05 02:55:38;;;;;;;0.90;0.90;;;0.50;99.90;;;;;;5020203;28;20205;-83
2023/12/05 02:58:03;;;;;;;0.90;0.90;;;0.50;99.90;;;;;;5021224;28;20267;-83
2023/12/05 03:00:29;;;;;;;0.90;0.90;;;0.50;99.90;;;;;;5002596;28;20624;-85
2023/12/05 03:02:54;;;;;;;0.80;0.80;;;0.50;99.90;;;;;;5019914;28;20177;-86
2023/12/05 03:05:20;;;;;;;0.80;0.80;;;0.60;99.90;;;;;;5019671;28;20203;-86
2023/12/05 03:07:45;;;;;;;0.80;0.80;;;0.60;99.90;;;;;;5019901;28;20215;-85
2023/12/05 03:10:11;;;;;;;1.00;1.00;;;0.70;99.90;;;;;;5020857;28;20181;-84
2023/12/05 03:12:37;;;;;;;1.00;1.00;;;0.60;99.90;;;;;;5019786;28;20227;-86
2023/12/05 03:15:03;;;;;;;0.90;0.90;;;0.60;99.90;;;;;;5018631;28;20204;-86
2023/12/05 03:17:29;;;;;;;0.90;0.90;;;0.70;99.90;;;;;;5001531;28;20216;-86
2023/12/05 03:19:54;;;;;;;0.90;0.90;;;1.00;99.90;;;;;;5019262;28;20184;-86
2023/12/05 03:22:20;;;;;;;0.83;0.83;;;0.80;99.90;;;;;;5018214;28;20182;-85
2023/12/05 03:24:46;;;;;;;0.87;0.87;;;0.40;99.90;;;;;;5019390;28;20662;-83
2023/12/05 03:27:11;;;;;;;0.80;0.80;;;0.30;99.90;;;;;;5018095;28;20208;-85
2023/12/05 03:29:37;;;;;;;0.90;0.90;;;0.40;99.90;;;;;;5019384;28;20176;-85
2023/12/05 03:32:03;;;;;;;0.80;0.80;;;0.30;99.90;;;;;;5018684;28;20279;-85
2023/12/05 03:34:28;;;;;;;0.90;0.90;;;0.10;99.90;;;;;;5018553;28;20666;-86
2023/12/05 03:36:54;;;;;;;0.87;0.87;;;0.30;99.90;;;;;;5017519;28;20274;-86
2023/12/05 03:39:19;;;;;;;0.80;0.80;;;0.20;99.90;;;;;;5018254;28;20169;-85
2023/12/05 03:41:47;;;;;;;0.90;0.90;;;0.10;99.90;;;;;;5018043;28;20173;-86
2023/12/05 03:44:13;;;;;;;0.90;0.90;;;0.00;99.90;;;;;;5018139;28;20273;-86
2023/12/05 03:46:39;;;;;;;1.00;1.00;;;0.00;99.90;;;;;;5017721;28;20231;-85
2023/12/05 03:49:05;;;;;;;0.80;0.80;;;0.10;99.90;;;;;;5001056;28;20180;-86
2023/12/05 03:51:30;;;;;;;0.90;0.90;;;0.30;99.90;;;;;;5018406;28;20288;-86
2023/12/05 03:53:56;;;;;;;0.70;0.70;;;0.30;99.90;;;;;;5018697;28;20187;-86
2023/12/05 03:56:22;;;;;;;0.90;0.90;;;0.20;99.90;;;;;;5018466;28;20200;-86
2023/12/05 03:58:48;;;;;;;0.90;0.90;;;0.00;99.90;;;;;;5018663;28;20179;-85
2023/12/05 04:01:15;;;;;;;1.00;1.00;;;0.10;99.90;;;;;;5019207;28;20267;-86
2023/12/05 04:03:42;;;;;;;0.90;0.90;;;0.70;99.90;;;;;;5000773;28;20184;-85
2023/12/05 04:06:09;;;;;;;0.87;0.87;;;0.90;99.90;;;;;;5017320;28;20219;-85
2023/12/05 04:08:35;;;;;;;0.90;0.90;;;0.70;99.90;;;;;;5018662;28;20199;-86
2023/12/05 04:11:00;;;;;;;0.90;0.90;;;0.50;99.90;;;;;;5000758;28;20200;-85
2023/12/05 04:13:26;;;;;;;0.90;0.90;;;0.40;99.90;;;;;;5001423;28;20265;-84
2023/12/05 04:15:51;;;;;;;0.80;0.80;;;0.40;99.90;;;;;;5033520;28;20259;-83
2023/12/05 04:18:17;;;;;;;0.87;0.87;;;0.30;99.90;;;;;;5033977;28;20185;-84
2023/12/05 04:20:43;;;;;;;0.90;0.90;;;0.00;99.90;;;;;;5021303;28;20169;-85
2023/12/05 04:23:08;;;;;;;1.00;1.00;;;0.20;99.90;;;;;;5017802;28;20183;-84
2023/12/05 04:25:34;;;;;;;1.00;1.00;;;-0.10;99.90;;;;;;5017393;28;20193;-86
2023/12/05 04:28:01;;;;;;;0.80;0.80;;;0.30;99.90;;;;;;5017192;28;20542;-83
2023/12/05 04:30:26;;;;;;;0.90;0.90;;;0.20;99.90;;;;;;5017404;28;20462;-85
2023/12/05 04:32:52;;;;;;;0.80;0.80;;;0.10;99.90;;;;;;5017698;28;20200;-85
2023/12/05 04:35:18;;;;;;;0.90;0.90;;;0.60;99.90;;;;;;5016863;28;20199;-84
2023/12/05 04:37:43;;;;;;;0.80;0.80;;;0.40;99.90;;;;;;5018121;28;20176;-85
2023/12/05 04:40:09;;;;;;;0.90;0.90;;;0.00;99.90;;;;;;5024112;28;20195;-83
2023/12/05 04:42:34;;;;;;;1.07;1.07;;;0.10;99.90;;;;;;5038142;28;20184;-82
2023/12/05 04:45:00;;;;;;;0.80;0.80;;;0.00;99.90;;;;;;5038355;28;20176;-82
2023/12/05 04:47:26;;;;;;;1.00;1.00;;;-0.10;99.90;;;;;;5038647;28;20252;-81
2023/12/05 04:49:51;;;;;;;0.70;0.70;;;-0.10;99.90;;;;;;5038625;28;20200;-82
2023/12/05 04:52:17;;;;;;;1.00;1.00;;;-0.20;99.90;;;;;;5038167;28;20223;-82
2023/12/05 04:54:42;;;;;;;0.90;0.90;;;-0.20;99.90;;;;;;5017393;28;20694;-84
2023/12/05 04:57:08;;;;;;;0.90;0.90;;;-0.40;99.90;;;;;;5013281;28;20196;-83
2023/12/05 04:59:33;;;;;;;0.90;0.90;;;-0.50;99.90;;;;;;5029633;28;20189;-82
2023/12/05 05:01:59;;;;;;;1.00;1.00;;;-1.00;99.90;;;;;;5029326;28;20203;-86
2023/12/05 05:04:25;;;;;;;0.80;0.80;;;-1.20;99.90;;;;;;5016275;28;20187;-84
2023/12/05 05:06:50;;;;;;;0.90;0.90;;;-1.20;99.90;;;;;;5015750;28;20291;-85
2023/12/05 05:09:16;;;;;;;0.90;0.90;;;-1.20;99.90;;;;;;5016018;28;20184;-84
2023/12/05 05:11:42;;;;;;;0.90;0.90;;;-1.20;99.90;;;;;;5017442;28;20295;-84
2023/12/05 05:14:08;;;;;;;0.83;0.83;;;-1.30;99.90;;;;;;5002548;28;20207;-83
2023/12/05 05:16:33;;;;;;;0.90;0.90;;;-1.20;99.90;;;;;;5017673;28;20204;-84
2023/12/05 05:18:59;;;;;;;1.00;1.00;;;-1.00;99.90;;;;;;5020420;28;20249;-85
2023/12/05 05:21:26;;;;;;;0.90;0.90;;;-0.90;99.90;;;;;;5019941;28;20180;-85
2023/12/05 05:23:52;;;;;;;0.80;0.80;;;-0.80;99.90;;;;;;5019753;28;20242;-85
2023/12/05 05:26:18;;;;;;;0.90;0.90;;;-0.50;99.90;;;;;;5020728;28;20216;-85
2023/12/05 05:28:43;;;;;;;0.90;0.90;;;-0.50;99.90;;;;;;5003470;28;20183;-86
2023/12/05 05:31:09;;;;;;;0.90;0.90;;;-0.50;99.90;;;;;;5026123;28;20309;-85
2023/12/05 05:33:34;;;;;;;0.90;0.90;;;-0.50;99.90;;;;;;5014541;28;20187;-86
2023/12/05 05:36:00;;;;;;;0.90;0.90;;;-0.40;99.90;;;;;;5032147;28;20226;-85
2023/12/05 05:38:25;;;;;;;1.00;1.00;;;-0.40;99.90;;;;;;5032155;28;20176;-85
2023/12/05 05:41:03;;;;;;;0.80;0.80;;;-0.40;99.90;;;;;;5032788;28;20180;-85
2023/12/05 05:43:28;;;;;;;0.90;0.90;;;-0.30;99.90;;;;;;5032582;28;20176;-85
2023/12/05 05:45:54;;;;;;;0.90;0.90;;;-0.20;99.90;;;;;;5032335;28;20196;-86
2023/12/05 05:48:19;;;;;;;0.90;0.90;;;-0.20;99.90;;;;;;5020782;28;20191;-84
2023/12/05 05:50:45;;;;;;;0.90;0.90;;;-0.30;99.90;;;;;;5037909;28;20270;-86
2023/12/05 05:53:11;;;;;;;0.90;0.90;;;-0.40;99.90;;;;;;5021776;28;20180;-85
2023/12/05 05:55:36;;;;;;;0.80;0.80;;;-0.30;99.90;;;;;;5021636;28;20200;-85
2023/12/05 05:58:02;;;;;;;1.00;1.00;;;0.10;99.90;;;;;;5021178;28;20177;-84
2023/12/05 06:00:27;;;;;;;0.80;0.80;;;0.10;99.90;;;;;;5003707;28;20176;-84
2023/12/05 06:02:53;;;;;;;0.90;0.90;;;-0.20;99.90;;;;;;5021552;28;20180;-87
2023/12/05 06:05:18;;;;;;;0.80;0.80;;;-0.20;99.90;;;;;;5021117;28;20283;-86
2023/12/05 06:07:44;;;;;;;0.80;0.80;;;0.00;99.90;;;;;;5022104;28;20173;-84
2023/12/05 06:10:10;;;;;;;0.90;0.90;;;0.30;99.90;;;;;;5021607;28;20557;-85
2023/12/05 06:12:35;;;;;;;0.80;0.80;;;0.00;99.90;;;;;;5022167;28;20200;-87
2023/12/05 06:15:01;;;;;;;0.83;0.83;;;0.10;99.90;;;;;;5021233;28;20173;-86
2023/12/05 06:17:26;;;;;;;0.80;0.80;;;0.10;99.90;;;;;;5020444;28;20305;-87
2023/12/05 06:19:53;;;;;;;0.90;0.90;;;0.20;99.90;;;;;;5020967;28;20172;-86
2023/12/05 06:22:18;;;;;;;0.90;0.90;;;-0.10;99.90;;;;;;5021933;28;20173;-86
2023/12/05 06:24:44;;;;;;;0.90;0.90;;;-0.10;99.90;;;;;;5022034;28;20185;-86
2023/12/05 06:27:10;;;;;;;0.93;0.93;;;-0.20;99.90;;;;;;5020525;28;20219;-86
2023/12/05 06:29:35;;;;;;;0.90;0.90;;;-0.20;99.90;;;;;;5020823;28;20200;-85
2023/12/05 06:32:03;;;;;;;0.90;0.90;;;-0.20;99.90;;;;;;5002420;28;20196;-85
2023/12/05 06:34:30;;;;;;;0.90;0.90;;;-0.30;99.90;;;;;;5020107;28;20184;-83
2023/12/05 06:36:55;;;;;;;1.00;1.00;;;-0.30;99.90;;;;;;5020834;28;20283;-84
2023/12/05 06:39:21;;;;;;;0.90;0.90;;;-0.30;99.90;;;;;;5021635;28;20196;-88
2023/12/05 06:41:46;;;;;;;1.00;1.00;;;0.40;99.90;;;;;;5021155;28;20196;-86
2023/12/05 06:44:12;;;;;;;0.90;0.90;;;0.30;99.90;;;;;;5019600;28;20204;-86
2023/12/05 06:46:38;;;;;;;1.00;1.00;;;0.30;99.90;;;;;;5018623;28;20205;-84
2023/12/05 06:49:04;;;;;;;0.90;0.90;;;0.50;99.90;;;;;;5019623;28;20199;-83
2023/12/05 06:51:30;;;;;;;0.90;0.90;;;0.60;99.90;;;;;;5019308;28;20196;-87
2023/12/05 06:53:55;;;;;;;0.90;0.90;;;0.30;99.90;;;;;;5020607;28;20522;-86
2023/12/05 06:56:21;;;;;;;0.87;0.87;;;0.20;99.90;;;;;;5019448;28;20692;-84
2023/12/05 06:58:46;;;;;;;0.90;0.90;;;0.30;99.90;;;;;;5018834;28;20330;-86
2023/12/05 07:01:12;;;;;;;0.80;0.80;;;0.30;99.90;;;;;;5018855;28;20208;-87
2023/12/05 07:03:37;;;;;;;0.80;0.80;;;0.40;99.90;;;;;;5018952;28;20573;-83
2023/12/05 07:06:05;;;;;;;0.90;0.90;;;0.50;99.90;;;;;;5018315;28;20278;-84
2023/12/05 07:08:31;;;;;;;1.00;1.00;;;0.40;99.90;;;;;;5018250;28;20259;-87
2023/12/05 07:10:56;;;;;;;0.90;0.90;;;0.20;99.90;;;;;;5018906;28;20697;-87
2023/12/05 07:13:22;;;;;;;0.90;0.90;;;0.40;99.90;;;;;;5019566;28;20176;-84
2023/12/05 07:15:48;;;;;;;0.90;0.90;;;0.40;99.90;;;;;;5017908;28;20204;-86
2023/12/05 07:18:14;;;;;;;0.90;0.90;;;0.70;99.90;;;;;;5006835;28;20184;-86
2023/12/05 07:20:39;;;;;;;0.83;0.83;;;0.90;99.90;;;;;;5029375;28;20180;-85
2023/12/05 07:23:05;;;;;;;0.80;0.80;;;1.10;99.90;;;;;;5011923;28;20172;-85
2023/12/05 07:25:31;;;;;;;0.90;0.90;;;1.40;99.90;;;;;;5030947;28;20195;-86
2023/12/05 07:27:56;;;;;;;0.90;0.90;;;1.50;99.90;;;;;;5033121;28;20192;-85
2023/12/05 07:30:22;;;;;;;0.90;0.90;;;1.40;99.90;;;;;;5025024;28;20177;-86
2023/12/05 07:32:48;;;;;;;0.80;0.80;;;1.40;99.90;;;;;;5028252;28;20748;-85
2023/12/05 07:35:13;;;;;;;1.03;1.03;;;1.40;99.90;;;;;;5021220;28;20181;-84
2023/12/05 07:37:39;;;;;;;0.80;0.80;;;1.50;99.90;;;;;;5028711;28;20171;-85
2023/12/05 07:40:06;;;;;;;0.80;0.80;;;2.20;99.90;;;;;;5026966;28;20232;-84
2023/12/05 07:42:32;;;;;;;0.80;0.80;;;3.60;99.90;;;;;;4997804;28;20234;-85
2023/12/05 07:44:58;;;;;;;0.70;0.70;;;4.90;99.90;;;;;;5024677;28;20176;-86
2023/12/05 07:47:24;;;;;;;0.70;0.70;;;5.00;10.20;;;;;;5024446;28;20291;-85
2023/12/05 07:49:51;;;;;;;0.60;0.60;;;4.80;1.00;;;;;;5027199;28;20675;-85
2023/12/05 07:52:16;;;;;;;0.60;0.60;;;5.90;1.00;;;;;;5029158;28;20212;-85
2023/12/05 07:54:42;;;;;;;0.60;0.60;;;6.70;99.90;;;;;;5024398;28;20199;-86
2023/12/05 07:57:08;;;;;;;0.50;0.50;;;8.00;99.90;;;;;;5018252;28;20185;-84
2023/12/05 07:59:33;;;;;;;0.50;0.50;;;8.90;1.00;;;;;;5016593;28;20191;-85
2023/12/05 08:01:59;;;;;;;0.50;0.50;;;9.10;99.90;;;;;;5016809;28;20219;-85
2023/12/05 08:04:25;;;;;;;0.50;0.50;;;9.20;99.90;;;;;;5003051;28;20279;-85
2023/12/05 08:06:51;;;;;;;0.50;0.50;;;9.20;99.90;;;;;;5023457;28;20200;-86
2023/12/05 08:09:17;;;;;;;0.50;0.50;;;10.00;55.30;;;;;;5006378;28;20177;-86
2023/12/05 08:11:43;;;;;;;0.40;0.40;;;10.20;1.00;;;;;;5023126;28;20210;-84
2023/12/05 08:14:08;;;;;;;0.40;0.40;;;10.60;1.00;;;;;;5001415;28;20555;-87
2023/12/05 08:16:35;;;;;;;0.40;0.40;;;10.40;1.00;;;;;;5019319;28;20338;-87
2023/12/05 08:19:00;;;;;;;0.37;0.37;;;9.80;1.00;;;;;;5017316;28;20177;-88
2023/12/05 08:21:26;;;;;;;0.40;0.40;;;9.20;1.00;;;;;;5036280;28;20181;-88
2023/12/05 08:23:52;;;;;;;0.40;0.40;;;8.90;99.90;;;;;;5037499;28;20168;-86
2023/12/05 08:26:21;;;;;;;0.40;0.40;;;8.80;24.40;;;;;;5022000;28;20196;-85
2023/12/05 08:28:48;;;;;;;0.40;0.40;;;8.70;1.00;;;;;;5037058;28;20241;-89
2023/12/05 08:31:13;;;;;;;0.40;0.40;;;8.90;4.10;;;;;;5022117;28;20210;-88
2023/12/05 08:33:39;;;;;;;0.40;0.40;;;8.80;1.00;;;;;;5028864;28;20181;-87
2023/12/05 08:36:05;;;;;;;0.50;0.50;;;8.70;93.70;;;;;;5015468;28;20200;-87
2023/12/05 08:38:32;;;;;;;0.50;0.50;;;7.30;1.00;;;;;;5015925;28;20535;-89
2023/12/05 08:40:57;;;;;;;0.40;0.40;;;6.90;1.00;;;;;;5025906;28;20200;-89
2023/12/05 08:43:23;;;;;;;0.50;0.50;;;6.50;1.00;;;;;;5037159;28;20169;-90
2023/12/05 08:45:48;;;;;;;0.60;0.60;;;7.10;1.00;;;;;;5037472;28;20204;-89
2023/12/05 08:48:14;;;;;;;0.47;0.47;;;6.70;1.00;;;;;;5020028;28;20157;-87
2023/12/05 08:50:41;;;;;;;0.50;0.50;;;6.50;99.90;;;;;;5018964;28;20189;-87
2023/12/05 08:53:06;;;;;;;0.50;0.50;;;7.80;1.00;;;;;;5015067;28;20204;-88
2023/12/05 08:55:32;;;;;;;0.50;0.50;;;9.00;99.90;;;;;;5017199;28;20250;-88
2023/12/05 08:57:57;;;;;;;0.40;0.40;;;9.50;34.20;;;;;;5016474;28;20187;-87
2023/12/05 09:00:23;;;;;;;0.50;0.50;;;9.40;18.70;;;;;;5018085;28;20191;-87
2023/12/05 09:02:48;;;;;;;0.30;0.30;;;9.60;3.00;;;;;;4981131;28;20184;-89
2023/12/05 09:05:15;;;;;;;0.50;0.50;;;10.30;1.00;;;;;;5024345;28;20196;-88
2023/12/05 09:07:41;;;;;;;0.47;0.47;;;10.20;1.00;;;;;;5034595;28;20276;-87
2023/12/05 09:10:07;;;;;;;0.50;0.50;;;10.50;1.00;;;;;;5033369;28;20192;-87
2023/12/05 09:12:32;;;;;;;0.40;0.40;;;10.80;1.00;;;;;;5024940;28;20216;-88
2023/12/05 09:14:58;;;;;;;0.40;0.40;;;10.90;1.00;;;;;;4998124;28;20180;-88
2023/12/05 09:17:24;;;;;;;0.40;0.40;;;10.80;1.00;;;;;;5016530;28;20232;-86
2023/12/05 09:19:50;;;;;;;0.40;0.40;;;10.80;1.00;;;;;;5001470;28;20177;-89
2023/12/05 09:22:17;;;;;;;0.40;0.40;;;11.80;1.00;;;;;;5031561;28;20183;-90
2023/12/05 09:24:42;;;;;;;0.30;0.30;;;12.00;1.00;;;;;;5037344;28;20165;-88
2023/12/05 09:27:08;;;;;;;0.40;0.40;;;11.30;1.00;;;;;;5037072;28;20211;-89
2023/12/05 09:29:33;;;;;;;0.37;0.37;;;11.60;1.00;;;;;;5036571;28;20204;-88
2023/12/05 09:31:59;;;;;;;0.30;0.30;;;10.30;1.00;;;;;;5024850;28;20204;-88
2023/12/05 09:34:24;;;;;;;0.47;0.47;;;10.40;1.00;;;;;;5015637;28;20180;-88
2023/12/05 09:36:50;;;;;;;0.40;0.40;;;10.50;1.00;;;;;;4999044;28;20204;-88
2023/12/05 09:39:16;;;;;;;0.50;0.50;;;10.80;1.00;;;;;;5002125;28;20175;-88
2023/12/05 09:41:49;;;;;;;0.50;0.50;;;10.60;1.00;;;;;;5020400;28;20188;-88
2023/12/05 09:44:19;;;;;;;0.50;0.50;;;10.60;1.00;;;;;;5014672;28;20188;-89
2023/12/05 09:46:49;;;;;;;0.40;0.40;;;9.20;63.00;;;;;;5014626;28;20579;-89
2023/12/05 09:49:17;;;;;;;0.50;0.50;;;10.10;3.60;;;;;;5013836;28;20179;-89
2023/12/05 09:51:42;;;;;;;0.50;0.50;;;9.90;99.90;;;;;;5016762;28;20224;-85
2023/12/05 09:54:10;;;;;;;0.40;0.40;;;10.70;1.00;;;;;;5016188;28;20550;-90
2023/12/05 09:56:36;;;;;;;0.50;0.50;;;12.40;1.00;;;;;;4996286;28;20209;-89
2023/12/05 09:59:02;;;;;;;0.50;0.50;;;12.80;1.00;;;;;;4995295;28;20184;-88
2023/12/05 10:01:31;;;;;;;0.40;0.40;;;13.00;1.00;;;;;;4995687;28;20185;-88
2023/12/05 10:03:58;;;;;;;0.40;0.40;;;12.90;1.00;;;;;;4995553;28;20256;-88
2023/12/05 10:06:29;;;;;;;0.40;0.40;;;13.30;1.00;;;;;;4994429;28;20205;-88
2023/12/05 10:08:56;;;;;;;0.30;0.30;;;13.00;1.00;;;;;;4977655;28;20247;-88
2023/12/05 10:11:24;;;;;;;0.40;0.40;;;12.40;1.00;;;;;;4995768;28;20296;-88
2023/12/05 10:13:50;;;;;;;0.37;0.37;;;12.90;1.00;;;;;;4999776;28;20634;-88
2023/12/05 10:16:16;;;;;;;0.30;0.30;;;12.80;1.00;;;;;;5015793;28;20209;-88
2023/12/05 10:18:44;;;;;;;0.43;0.43;;;12.20;1.00;;;;;;5031041;28;20197;-90
2023/12/05 10:21:10;;;;;;;0.30;0.30;;;12.30;1.00;;;;;;5037194;28;20168;-89
2023/12/05 10:23:36;;;;;;;0.40;0.40;;;12.00;1.00;;;;;;5028859;28;20173;-89
2023/12/05 10:26:03;;;;;;;0.40;0.40;;;13.20;1.00;;;;;;5014802;28;20700;-87
2023/12/05 10:28:28;;;;;;;0.50;0.50;;;12.90;1.00;;;;;;4997740;28;20548;-89
2023/12/05 10:30:54;;;;;;;0.40;0.40;;;13.40;1.00;;;;;;5014840;28;20266;-90
2023/12/05 10:33:23;;;;;;;0.40;0.40;;;13.70;1.00;;;;;;4999685;28;20180;-88
2023/12/05 10:35:49;;;;;;;0.40;0.40;;;13.20;1.00;;;;;;5018341;28;20620;-87
2023/12/05 10:38:19;;;;;;;0.50;0.50;;;12.10;1.00;;;;;;5019399;28;20650;-89
2023/12/05 10:40:59;;;;;;;0.50;0.50;;;10.60;1.00;;;;;;5019442;28;20187;-88
2023/12/05 10:43:26;;;;;;;0.40;0.40;;;9.90;1.00;;;;;;5011764;28;20606;-87
2023/12/05 10:45:54;;;;;;;0.40;0.40;;;9.40;12.90;;;;;;5018206;28;20200;-88
2023/12/05 10:48:24;;;;;;;0.50;0.50;;;9.20;39.80;;;;;;5018533;28;20189;-88
2023/12/05 10:50:51;;;;;;;0.50;0.50;;;8.90;57.80;;;;;;5021873;28;20177;-84
2023/12/05 10:53:17;;;;;;;0.50;0.50;;;9.30;1.00;;;;;;5022096;28;20192;-86
2023/12/05 10:55:43;;;;;;;0.30;0.30;;;10.40;99.90;;;;;;5021920;28;20279;-89
2023/12/05 10:58:09;;;;;;;0.40;0.40;;;10.90;1.00;;;;;;5018020;28;20211;-87
2023/12/05 11:00:36;;;;;;;0.50;0.50;;;11.80;1.00;;;;;;5019967;28;20184;-86
2023/12/05 11:03:05;;;;;;;0.40;0.40;;;11.00;1.00;;;;;;5017947;28;20177;-89
2023/12/05 11:05:31;;;;;;;0.50;0.50;;;11.10;1.00;;;;;;5005205;28;20248;-87
2023/12/05 11:07:58;;;;;;;0.40;0.40;;;12.50;1.00;;;;;;5014235;28;20268;-87
2023/12/05 11:10:29;;;;;;;0.47;0.47;;;11.50;1.00;;;;;;5018923;28;20184;-87
2023/12/05 11:12:56;;;;;;;0.50;0.50;;;11.80;1.00;;;;;;5001657;28;20585;-88
2023/12/05 11:15:31;;;;;;;0.50;0.50;;;11.50;1.00;;;;;;4998998;28;20189;-87
2023/12/05 11:18:15;;;;;;;0.50;0.50;;;10.80;1.00;;;;;;5017323;28;20323;-86
2023/12/05 11:21:18;;;;;;;0.40;0.40;;;9.00;78.90;;;;;;5000334;28;20212;-88
2023/12/05 11:24:02;;;;;;;0.50;0.50;;;8.40;99.90;;;;;;5007054;28;20177;-87
2023/12/05 11:26:55;;;;;;;0.40;0.40;;;8.40;1.00;;;;;;5018083;28;20216;-88
2023/12/05 11:29:53;;;;;;;0.50;0.50;;;8.40;1.00;;;;;;5017878;28;20181;-87
2023/12/05 11:32:28;;;;;;;0.50;0.50;;;8.10;99.90;;;;;;5027371;28;20208;-88
2023/12/05 11:35:23;;;;;;;0.50;0.50;;;8.10;99.90;;;;;;5039352;28;20164;-87
2023/12/05 11:37:57;;;;;;;0.57;0.57;;;8.10;99.90;;;;;;5002814;28;20233;-88
2023/12/05 11:40:23;;;;;;;0.60;0.60;;;8.10;99.90;;;;;;5032887;28;20164;-91
2023/12/05 11:43:05;;;;;;;0.60;0.60;;;8.00;99.90;;;;;;5011242;28;20189;-86
2023/12/05 11:45:31;;;;;;;0.57;0.57;;;7.80;1.00;;;;;;5019141;28;20188;-88
2023/12/05 11:48:01;;;;;;;0.50;0.50;;;8.10;1.00;;;;;;4997761;28;20268;-88
2023/12/05 11:50:46;;;;;;;0.50;0.50;;;7.90;1.00;;;;;;4999539;28;20200;-86
2023/12/05 11:53:14;;;;;;;0.60;0.60;;;7.70;1.00;;;;;;5000398;28;20243;-88
2023/12/05 11:55:41;;;;;;;0.67;0.67;;;7.90;1.00;;;;;;5002282;28;20216;-90
2023/12/05 11:58:27;;;;;;;0.60;0.60;;;8.00;1.00;;;;;;5005417;28;20704;-86
2023/12/05 12:01:07;;;;;;;0.60;0.60;;;8.00;99.90;;;;;;5006367;28;20221;-88
2023/12/05 12:03:44;;;;;;;0.70;0.70;;;7.80;99.90;;;;;;5005658;28;20184;-89
2023/12/05 12:06:09;;;;;;;0.63;0.63;;;7.90;99.90;;;;;;5007740;28;20235;-88
2023/12/05 12:08:35;;;;;;;0.63;0.63;;;7.90;1.00;;;;;;5004573;28;20647;-88
2023/12/05 12:11:01;;;;;;;0.60;0.60;;;8.10;99.90;;;;;;5010353;28;20209;-87
2023/12/05 12:13:27;;;;;;;0.60;0.60;;;8.10;99.90;;;;;;5018747;28;20241;-89
2023/12/05 12:15:54;;;;;;;0.60;0.60;;;7.90;1.00;;;;;;5020880;28;20221;-85
2023/12/05 12:18:26;;;;;;;0.60;0.60;;;7.80;99.90;;;;;;5037922;28;20240;-84
2023/12/05 12:20:52;;;;;;;0.60;0.60;;;7.90;99.90;;;;;;5027461;28;20265;-86
2023/12/05 12:23:21;;;;;;;0.60;0.60;;;8.00;99.90;;;;;;5021260;28;20180;-83
2023/12/05 12:25:55;;;;;;;0.50;0.50;;;8.20;1.00;;;;;;5021316;28;20250;-87
2023/12/05 12:28:28;;;;;;;0.60;0.60;;;8.10;1.00;;;;;;5020265;28;20475;-85
2023/12/05 12:30:58;;;;;;;0.50;0.50;;;8.20;1.00;;;;;;5020071;28;20173;-89
2023/12/05 12:33:38;;;;;;;0.60;0.60;;;9.20;1.00;;;;;;5020580;28;20180;-87
2023/12/05 12:36:05;;;;;;;0.50;0.50;;;10.60;1.00;;;;;;5003259;28;20204;-88
2023/12/05 12:38:33;;;;;;;0.40;0.40;;;11.90;1.00;;;;;;5002630;28;20230;-86
2023/12/05 12:40:59;;;;;;;0.50;0.50;;;12.80;1.00;;;;;;5005714;28;20168;-87
2023/12/05 12:43:24;;;;;;;0.47;0.47;;;13.10;1.00;;;;;;5031471;28;20188;-89
2023/12/05 12:45:50;;;;;;;0.40;0.40;;;12.40;1.00;;;;;;5017263;28;20199;-87
2023/12/05 12:48:15;;;;;;;0.40;0.40;;;13.40;1.00;;;;;;5028175;28;20267;-87
2023/12/05 12:50:41;;;;;;;0.50;0.50;;;13.00;1.00;;;;;;4990777;28;20181;-88
2023/12/05 12:53:07;;;;;;;0.60;0.60;;;13.70;1.00;;;;;;5030039;28;20164;-87
2023/12/05 12:55:34;;;;;;;0.40;0.40;;;13.90;1.00;;;;;;5023247;28;20185;-88
2023/12/05 12:58:00;;;;;;;0.50;0.50;;;13.70;1.00;;;;;;5013493;28;20501;-86